Time;durP1;ratioP1;P1;durP2;ratioP2;P2;SDS_P1;SDS_P2;PMS_P1;PMS_P2;Temp;Humidity;BMP_temperature;BMP_pressure;BME280_temperature;BME280_humidity;BME280_pressure;Samples;Min_cycle;Max_cycle;Signal;HPM_P1;HPM_P2
2023/11/11 00:00:36;;;;;;;0.70;0.55;;;16.60;69.10;;;;;;5060425;28;20444;-80
2023/11/11 00:03:04;;;;;;;1.00;0.60;;;16.60;69.20;;;;;;5063746;28;20040;-80
2023/11/11 00:05:30;;;;;;;0.70;0.60;;;16.60;69.20;;;;;;5062897;28;20121;-80
2023/11/11 00:07:55;;;;;;;0.63;0.50;;;16.60;68.90;;;;;;5062170;28;20558;-80
2023/11/11 00:10:21;;;;;;;0.90;0.40;;;16.60;69.80;;;;;;5061130;28;20098;-79
2023/11/11 00:12:47;;;;;;;1.05;0.70;;;16.60;69.00;;;;;;5063333;28;20040;-79
2023/11/11 00:15:13;;;;;;;0.57;0.40;;;16.60;69.40;;;;;;5061728;28;20094;-80
2023/11/11 00:17:39;;;;;;;0.57;0.50;;;16.60;69.00;;;;;;5063203;28;20047;-79
2023/11/11 00:20:11;;;;;;;0.60;0.60;;;16.60;68.90;;;;;;5062225;28;20047;-78
2023/11/11 00:22:37;;;;;;;0.68;0.55;;;16.60;69.00;;;;;;5064598;28;20040;-79
2023/11/11 00:25:03;;;;;;;1.10;0.70;;;16.60;68.90;;;;;;5063970;28;20448;-79
2023/11/11 00:27:29;;;;;;;0.85;0.70;;;16.60;69.10;;;;;;5061122;28;20127;-78
2023/11/11 00:29:56;;;;;;;0.70;0.60;;;16.60;69.00;;;;;;5060859;28;20064;-79
2023/11/11 00:32:22;;;;;;;0.65;0.47;;;16.60;68.90;;;;;;5061846;28;20147;-79
2023/11/11 00:34:47;;;;;;;1.58;0.63;;;16.50;69.10;;;;;;5064731;28;20060;-79
2023/11/11 00:37:13;;;;;;;0.50;0.50;;;16.60;68.90;;;;;;5063785;28;20727;-79
2023/11/11 00:39:39;;;;;;;0.85;0.50;;;16.60;69.00;;;;;;5064374;28;20040;-79
2023/11/11 00:42:05;;;;;;;0.80;0.75;;;16.50;68.70;;;;;;5060695;28;20505;-79
2023/11/11 00:44:30;;;;;;;0.68;0.38;;;16.60;68.80;;;;;;5065156;28;20514;-79
2023/11/11 00:46:56;;;;;;;0.70;0.45;;;16.60;68.90;;;;;;5059454;28;20142;-79
2023/11/11 00:49:21;;;;;;;0.90;0.50;;;16.60;68.70;;;;;;5060847;28;20030;-79
2023/11/11 00:51:47;;;;;;;0.93;0.50;;;16.60;68.80;;;;;;5064766;28;20518;-79
2023/11/11 00:54:14;;;;;;;0.68;0.50;;;16.60;69.00;;;;;;5062443;28;20468;-79
2023/11/11 00:56:40;;;;;;;0.80;0.47;;;16.60;68.80;;;;;;5057612;28;20040;-79
2023/11/11 00:59:05;;;;;;;1.38;0.85;;;16.60;68.80;;;;;;5066076;28;20708;-78
2023/11/11 01:01:33;;;;;;;0.70;0.40;;;16.60;69.60;;;;;;5065617;28;20865;-79
2023/11/11 01:04:00;;;;;;;0.70;0.55;;;16.60;68.90;;;;;;5068180;28;20032;-79
2023/11/11 01:06:26;;;;;;;0.50;0.50;;;16.60;68.80;;;;;;5064193;28;20117;-79
2023/11/11 01:08:52;;;;;;;1.98;0.50;;;16.60;68.80;;;;;;5066327;28;20107;-79
2023/11/11 01:11:19;;;;;;;1.02;0.45;;;16.60;68.70;;;;;;5065043;28;20414;-79
2023/11/11 01:13:45;;;;;;;1.70;0.65;;;16.60;69.10;;;;;;5067307;28;20086;-79
2023/11/11 01:16:10;;;;;;;0.40;0.40;;;16.50;68.70;;;;;;5066452;28;20045;-78
2023/11/11 01:18:36;;;;;;;0.57;0.40;;;16.60;68.90;;;;;;5065505;28;20040;-80
2023/11/11 01:21:04;;;;;;;1.13;0.40;;;16.50;68.80;;;;;;5064986;28;20033;-79
2023/11/11 01:23:33;;;;;;;1.08;0.90;;;16.50;68.60;;;;;;5062403;28;20048;-79
2023/11/11 01:25:59;;;;;;;0.60;0.60;;;16.50;68.90;;;;;;5064422;28;20041;-79
2023/11/11 01:28:25;;;;;;;0.63;0.63;;;16.50;68.80;;;;;;5066085;28;20036;-79
2023/11/11 01:30:52;;;;;;;0.38;0.38;;;16.50;68.70;;;;;;5065741;28;20037;-79
2023/11/11 01:33:18;;;;;;;0.90;0.65;;;16.50;68.90;;;;;;5064189;28;20036;-79
2023/11/11 01:35:43;;;;;;;0.65;0.63;;;16.50;68.60;;;;;;5061105;28;20233;-79
2023/11/11 01:38:10;;;;;;;0.63;0.60;;;16.50;68.80;;;;;;5065579;28;20032;-78
2023/11/11 01:40:35;;;;;;;1.15;0.68;;;16.50;68.50;;;;;;5064599;28;20498;-79
2023/11/11 01:43:01;;;;;;;0.90;0.60;;;16.50;68.60;;;;;;5066890;28;20044;-79
2023/11/11 01:45:27;;;;;;;0.40;0.40;;;16.50;68.50;;;;;;5065300;28;20119;-79
2023/11/11 01:47:53;;;;;;;0.85;0.77;;;16.50;68.60;;;;;;5066595;28;20040;-79
2023/11/11 01:50:19;;;;;;;1.10;0.77;;;16.50;68.60;;;;;;5061780;28;20506;-79
2023/11/11 01:52:46;;;;;;;0.60;0.52;;;16.50;68.40;;;;;;5064294;28;20086;-79
2023/11/11 01:55:12;;;;;;;0.70;0.55;;;16.50;68.50;;;;;;5063519;28;20029;-78
2023/11/11 01:57:37;;;;;;;0.57;0.40;;;16.50;68.50;;;;;;5065574;28;20057;-79
2023/11/11 02:00:12;;;;;;;0.90;0.60;;;16.50;68.50;;;;;;5065370;28;20444;-79
2023/11/11 02:02:37;;;;;;;1.30;0.70;;;16.50;68.60;;;;;;5060961;28;20036;-78
2023/11/11 02:05:03;;;;;;;0.47;0.47;;;16.50;68.60;;;;;;5064021;28;20564;-79
2023/11/11 02:07:29;;;;;;;0.90;0.55;;;16.50;68.50;;;;;;5062985;28;20061;-79
2023/11/11 02:09:54;;;;;;;0.90;0.50;;;16.50;68.60;;;;;;5066261;28;20036;-79
2023/11/11 02:12:20;;;;;;;0.70;0.50;;;16.50;68.50;;;;;;5065276;28;20048;-79
2023/11/11 02:14:46;;;;;;;0.63;0.60;;;16.50;68.60;;;;;;5062553;28;20390;-79
2023/11/11 02:17:11;;;;;;;0.65;0.55;;;16.50;68.60;;;;;;5061485;28;20041;-78
2023/11/11 02:19:37;;;;;;;1.08;0.80;;;16.50;68.60;;;;;;5064840;28;20138;-79
2023/11/11 02:22:02;;;;;;;0.50;0.50;;;16.50;68.60;;;;;;5065002;28;20120;-79
2023/11/11 02:24:28;;;;;;;1.63;0.50;;;16.40;68.50;;;;;;5060854;28;20037;-79
2023/11/11 02:26:54;;;;;;;0.73;0.73;;;16.40;68.40;;;;;;5060478;28;20406;-79
2023/11/11 02:29:19;;;;;;;0.55;0.50;;;16.50;68.50;;;;;;5061182;28;20072;-79
2023/11/11 02:31:45;;;;;;;0.60;0.50;;;16.40;68.40;;;;;;5063755;28;20037;-79
2023/11/11 02:34:10;;;;;;;0.75;0.50;;;16.40;68.50;;;;;;5063966;28;20100;-78
2023/11/11 02:36:36;;;;;;;1.00;0.70;;;16.40;68.40;;;;;;5063345;28;20040;-79
2023/11/11 02:39:01;;;;;;;1.83;0.63;;;16.40;68.50;;;;;;5063834;28;20033;-79
2023/11/11 02:41:27;;;;;;;0.85;0.73;;;16.50;68.60;;;;;;5067637;28;20025;-78
2023/11/11 02:43:52;;;;;;;0.70;0.70;;;16.50;68.60;;;;;;5062565;28;20048;-79
2023/11/11 02:46:18;;;;;;;0.65;0.43;;;16.40;68.40;;;;;;5061667;28;20382;-78
2023/11/11 02:48:43;;;;;;;0.70;0.70;;;16.50;68.50;;;;;;5062804;28;20553;-79
2023/11/11 02:51:09;;;;;;;1.02;0.68;;;16.50;68.50;;;;;;5060926;28;20119;-79
2023/11/11 02:53:35;;;;;;;0.80;0.50;;;16.50;68.40;;;;;;5062312;28;20052;-80
2023/11/11 02:56:01;;;;;;;0.60;0.50;;;16.50;68.40;;;;;;5063724;28;20051;-79
2023/11/11 02:58:27;;;;;;;0.40;0.40;;;16.40;68.40;;;;;;5063603;28;20045;-79
2023/11/11 03:00:53;;;;;;;0.50;0.43;;;16.40;68.40;;;;;;5065913;28;20056;-79
2023/11/11 03:03:19;;;;;;;0.70;0.70;;;16.40;68.40;;;;;;5062365;28;20051;-79
2023/11/11 03:05:45;;;;;;;0.50;0.50;;;16.40;68.40;;;;;;5062105;28;20052;-79
2023/11/11 03:08:11;;;;;;;0.73;0.63;;;16.50;68.40;;;;;;5063329;28;20082;-80
2023/11/11 03:10:36;;;;;;;2.13;0.65;;;16.40;69.20;;;;;;5059490;28;20053;-79
2023/11/11 03:13:02;;;;;;;0.55;0.43;;;16.40;68.40;;;;;;5065865;28;20087;-79
2023/11/11 03:15:27;;;;;;;0.70;0.50;;;16.40;68.50;;;;;;5061547;28;20090;-79
2023/11/11 03:17:53;;;;;;;0.55;0.55;;;16.40;69.30;;;;;;5062088;28;20048;-79
2023/11/11 03:20:20;;;;;;;0.98;0.75;;;16.40;68.40;;;;;;5061445;28;20479;-79
2023/11/11 03:22:46;;;;;;;1.58;0.50;;;16.40;68.40;;;;;;5063732;28;20047;-79
2023/11/11 03:25:13;;;;;;;1.20;0.73;;;16.40;68.40;;;;;;5067210;28;20057;-79
2023/11/11 03:27:39;;;;;;;0.60;0.60;;;16.40;68.40;;;;;;5059545;28;20045;-79
2023/11/11 03:30:06;;;;;;;0.57;0.55;;;16.40;68.40;;;;;;5050863;28;20055;-79
2023/11/11 03:32:31;;;;;;;0.82;0.80;;;16.40;68.40;;;;;;5059244;28;20851;-79
2023/11/11 03:34:57;;;;;;;0.82;0.60;;;16.40;68.40;;;;;;5060605;28;20062;-79
2023/11/11 03:37:24;;;;;;;1.00;0.68;;;16.40;68.40;;;;;;5062661;28;20098;-79
2023/11/11 03:39:51;;;;;;;0.90;0.40;;;16.40;68.40;;;;;;5065026;28;20036;-79
2023/11/11 03:42:17;;;;;;;1.13;0.88;;;16.40;68.30;;;;;;5062052;28;20040;-78
2023/11/11 03:44:42;;;;;;;0.50;0.40;;;16.40;68.30;;;;;;5060424;28;20040;-79
2023/11/11 03:47:08;;;;;;;0.80;0.60;;;16.40;68.30;;;;;;5062613;28;20084;-79
2023/11/11 03:49:33;;;;;;;1.00;0.77;;;16.40;68.40;;;;;;5062741;28;20482;-79
2023/11/11 03:51:59;;;;;;;9.75;0.70;;;16.40;68.40;;;;;;5066170;28;20028;-79
2023/11/11 03:54:25;;;;;;;0.60;0.50;;;16.40;68.30;;;;;;5060850;28;20055;-79
2023/11/11 03:56:51;;;;;;;1.05;0.77;;;16.40;68.20;;;;;;5062835;28;20056;-79
2023/11/11 03:59:17;;;;;;;0.85;0.63;;;16.40;68.40;;;;;;5092021;28;20099;-78
2023/11/11 04:01:42;;;;;;;0.70;0.60;;;16.40;68.40;;;;;;5063245;28;20089;-79
2023/11/11 04:04:11;;;;;;;0.75;0.50;;;16.40;68.30;;;;;;5064420;28;20037;-79
2023/11/11 04:06:37;;;;;;;1.92;0.50;;;16.40;68.30;;;;;;5075586;28;20406;-79
2023/11/11 04:09:03;;;;;;;1.17;0.57;;;16.30;68.30;;;;;;5061528;28;20052;-79
2023/11/11 04:11:28;;;;;;;0.73;0.60;;;16.40;68.30;;;;;;5063193;28;20098;-78
2023/11/11 04:13:56;;;;;;;2.85;0.52;;;16.40;68.40;;;;;;5061219;28;20410;-79
2023/11/11 04:16:21;;;;;;;0.80;0.40;;;16.40;68.40;;;;;;5062486;28;20049;-78
2023/11/11 04:18:47;;;;;;;1.23;0.60;;;16.40;68.40;;;;;;5061386;28;20135;-78
2023/11/11 04:21:12;;;;;;;1.10;0.68;;;16.30;68.20;;;;;;5062527;28;20047;-79
2023/11/11 04:23:40;;;;;;;0.70;0.70;;;16.30;68.30;;;;;;5060399;28;20113;-79
2023/11/11 04:26:05;;;;;;;0.75;0.50;;;16.40;68.30;;;;;;5063064;28;20552;-79
2023/11/11 04:28:31;;;;;;;1.38;0.82;;;16.30;68.20;;;;;;5062197;28;20040;-78
2023/11/11 04:30:57;;;;;;;0.82;0.80;;;16.40;68.30;;;;;;5063512;28;20035;-79
2023/11/11 04:33:22;;;;;;;0.73;0.52;;;16.30;68.20;;;;;;5057810;28;20052;-78
2023/11/11 04:35:51;;;;;;;1.50;0.70;;;16.30;68.20;;;;;;5059084;28;20048;-79
2023/11/11 04:38:17;;;;;;;0.68;0.68;;;16.40;68.20;;;;;;5062087;28;20513;-79
2023/11/11 04:40:44;;;;;;;0.98;0.68;;;16.30;68.30;;;;;;5062482;28;20041;-78
2023/11/11 04:43:10;;;;;;;0.73;0.60;;;16.30;68.20;;;;;;5066952;28;20040;-79
2023/11/11 04:45:36;;;;;;;1.00;0.70;;;16.30;68.20;;;;;;5063718;28;20043;-78
2023/11/11 04:48:02;;;;;;;0.85;0.50;;;16.30;68.40;;;;;;5061330;28;20045;-79
2023/11/11 04:50:27;;;;;;;0.60;0.60;;;16.30;68.40;;;;;;5060167;28;20047;-78
2023/11/11 04:52:53;;;;;;;0.85;0.60;;;16.30;68.60;;;;;;5063325;28;20076;-79
2023/11/11 04:55:18;;;;;;;0.77;0.70;;;16.30;68.60;;;;;;5065963;28;20044;-77
2023/11/11 04:57:44;;;;;;;0.60;0.57;;;16.30;68.50;;;;;;5063102;28;20143;-78
2023/11/11 05:00:10;;;;;;;0.77;0.70;;;16.30;68.50;;;;;;5062400;28;20075;-79
2023/11/11 05:02:39;;;;;;;1.50;0.70;;;16.30;68.30;;;;;;5061029;28;20525;-78
2023/11/11 05:05:05;;;;;;;1.02;0.73;;;16.30;68.30;;;;;;5061276;28;20065;-79
2023/11/11 05:07:31;;;;;;;0.70;0.70;;;16.30;68.30;;;;;;5060403;28;20045;-79
2023/11/11 05:09:57;;;;;;;0.47;0.47;;;16.30;68.30;;;;;;5063684;28;20040;-79
2023/11/11 05:12:22;;;;;;;1.70;0.73;;;16.30;68.50;;;;;;5059032;28;20044;-78
2023/11/11 05:14:49;;;;;;;0.55;0.55;;;16.30;68.20;;;;;;5061994;28;20112;-79
2023/11/11 05:17:16;;;;;;;0.88;0.60;;;16.30;68.20;;;;;;5059783;28;20064;-79
2023/11/11 05:19:42;;;;;;;0.70;0.50;;;16.30;68.20;;;;;;5062846;28;20059;-78
2023/11/11 05:22:09;;;;;;;1.30;0.70;;;16.30;68.30;;;;;;5064000;28;20076;-79
2023/11/11 05:24:34;;;;;;;1.13;0.70;;;16.30;69.00;;;;;;5059576;28;20120;-78
2023/11/11 05:27:00;;;;;;;0.88;0.50;;;16.30;68.20;;;;;;5059686;28;20150;-79
2023/11/11 05:29:25;;;;;;;2.88;0.85;;;16.30;68.30;;;;;;5058909;28;20036;-78
2023/11/11 05:31:51;;;;;;;0.50;0.50;;;16.30;68.30;;;;;;5060066;28;20438;-78
2023/11/11 05:34:17;;;;;;;0.88;0.63;;;16.30;68.20;;;;;;5060355;28;20115;-79
2023/11/11 05:36:42;;;;;;;0.52;0.50;;;16.20;68.30;;;;;;5062356;28;20044;-79
2023/11/11 05:39:09;;;;;;;1.00;0.60;;;16.30;68.20;;;;;;5057753;28;20044;-79
2023/11/11 05:41:36;;;;;;;0.75;0.60;;;16.30;68.30;;;;;;5062075;28;20068;-80
2023/11/11 05:44:05;;;;;;;1.17;0.75;;;16.30;68.20;;;;;;5062344;28;20037;-79
2023/11/11 05:46:30;;;;;;;0.60;0.60;;;16.30;68.30;;;;;;5067840;28;20080;-78
2023/11/11 05:48:56;;;;;;;0.68;0.40;;;16.30;68.50;;;;;;5065783;28;20083;-79
2023/11/11 05:51:24;;;;;;;0.55;0.40;;;16.20;68.20;;;;;;5066749;28;20029;-79
2023/11/11 05:53:50;;;;;;;0.70;0.60;;;16.30;68.30;;;;;;5058914;28;20044;-79
2023/11/11 05:56:16;;;;;;;0.60;0.40;;;16.20;68.10;;;;;;5062307;28;20041;-79
2023/11/11 05:58:42;;;;;;;0.75;0.40;;;16.30;68.40;;;;;;5062798;28;20049;-79
2023/11/11 06:01:08;;;;;;;0.60;0.35;;;16.20;68.30;;;;;;5065347;28;20079;-79
2023/11/11 06:03:33;;;;;;;0.60;0.60;;;16.30;68.20;;;;;;5064673;28;20410;-79
2023/11/11 06:06:01;;;;;;;1.15;0.50;;;16.30;68.40;;;;;;5063579;28;20051;-79
2023/11/11 06:08:27;;;;;;;0.95;0.47;;;16.20;68.20;;;;;;5065231;28;20024;-79
2023/11/11 06:10:53;;;;;;;0.60;0.50;;;16.20;68.20;;;;;;5066856;28;20146;-81
2023/11/11 06:13:18;;;;;;;0.50;0.50;;;16.20;68.10;;;;;;5067308;28;20032;-81
2023/11/11 06:15:44;;;;;;;0.50;0.50;;;16.20;68.10;;;;;;5065351;28;20135;-81
2023/11/11 06:18:10;;;;;;;1.00;0.70;;;16.20;68.00;;;;;;5063578;28;20032;-81
2023/11/11 06:20:36;;;;;;;1.38;0.60;;;16.20;68.10;;;;;;5064101;28;20036;-80
2023/11/11 06:23:01;;;;;;;0.52;0.43;;;16.20;68.10;;;;;;5061532;28;20043;-81
2023/11/11 06:25:27;;;;;;;1.90;0.60;;;16.20;68.20;;;;;;5059948;28;20063;-80
2023/11/11 06:27:53;;;;;;;0.82;0.68;;;16.20;68.10;;;;;;5066242;28;20086;-81
2023/11/11 06:30:20;;;;;;;1.70;0.50;;;16.20;68.30;;;;;;5064978;28;20522;-81
2023/11/11 06:32:50;;;;;;;0.45;0.40;;;16.20;68.10;;;;;;5064435;28;20131;-80
2023/11/11 06:35:16;;;;;;;0.73;0.50;;;16.20;68.00;;;;;;5058518;28;20041;-81
2023/11/11 06:37:42;;;;;;;0.85;0.77;;;16.20;68.10;;;;;;5058937;28;20043;-81
2023/11/11 06:40:08;;;;;;;0.25;0.20;;;16.20;68.10;;;;;;5065723;28;20400;-81
2023/11/11 06:42:37;;;;;;;0.90;0.50;;;16.20;68.10;;;;;;5061781;28;20049;-80
2023/11/11 06:45:03;;;;;;;1.00;0.50;;;16.20;68.00;;;;;;5063961;28;20146;-81
2023/11/11 06:47:29;;;;;;;0.95;0.73;;;16.20;68.10;;;;;;5064018;28;20080;-80
2023/11/11 06:49:55;;;;;;;1.00;0.70;;;16.20;68.10;;;;;;5064405;28;20075;-80
2023/11/11 06:52:20;;;;;;;1.58;0.57;;;16.20;68.10;;;;;;5060196;28;20040;-81
2023/11/11 06:54:46;;;;;;;0.50;0.50;;;16.20;68.10;;;;;;5061351;28;20391;-80
2023/11/11 06:57:12;;;;;;;1.10;0.70;;;16.20;68.30;;;;;;5062818;28;20080;-81
2023/11/11 06:59:38;;;;;;;1.13;0.47;;;16.20;68.10;;;;;;5059374;28;20103;-80
2023/11/11 07:02:03;;;;;;;0.73;0.40;;;16.20;68.10;;;;;;5063477;28;20503;-81
2023/11/11 07:04:29;;;;;;;0.40;0.40;;;16.20;68.00;;;;;;5063071;28;20113;-80
2023/11/11 07:06:55;;;;;;;0.93;0.50;;;16.20;68.10;;;;;;5064619;28;20047;-81
2023/11/11 07:09:20;;;;;;;0.70;0.60;;;16.20;68.00;;;;;;5065479;28;20452;-81
2023/11/11 07:11:49;;;;;;;0.68;0.50;;;16.20;68.10;;;;;;5061030;28;20132;-81
2023/11/11 07:14:14;;;;;;;0.75;0.40;;;16.20;68.10;;;;;;5063609;28;20048;-81
2023/11/11 07:16:40;;;;;;;0.80;0.50;;;16.10;68.10;;;;;;5060653;28;20035;-80
2023/11/11 07:19:06;;;;;;;2.40;0.90;;;16.20;68.10;;;;;;5064668;28;20468;-81
2023/11/11 07:21:32;;;;;;;0.57;0.40;;;16.20;68.60;;;;;;5062230;28;20494;-79
2023/11/11 07:23:57;;;;;;;0.85;0.50;;;16.10;68.00;;;;;;5062287;28;20040;-81
2023/11/11 07:26:23;;;;;;;0.32;0.30;;;16.20;68.10;;;;;;5059338;28;20505;-81
2023/11/11 07:28:48;;;;;;;0.50;0.50;;;16.10;68.00;;;;;;5061342;28;20177;-81
2023/11/11 07:31:17;;;;;;;0.77;0.57;;;16.20;68.20;;;;;;5063181;28;20041;-83
2023/11/11 07:35:47;;;;;;;23.93;6.97;;;16.20;68.50;;;;;;4698984;27;10001062;-82
2023/11/11 07:38:12;;;;;;;11.82;7.00;;;16.30;68.10;;;;;;5039371;28;20044;-84
2023/11/11 07:40:38;;;;;;;6.43;3.60;;;16.10;68.60;;;;;;5065605;28;20037;-82
2023/11/11 07:43:04;;;;;;;3.47;2.00;;;16.10;69.10;;;;;;5042241;28;20055;-82
2023/11/11 07:45:29;;;;;;;1.50;1.40;;;16.10;69.50;;;;;;5050040;28;20135;-82
2023/11/11 07:47:55;;;;;;;1.65;1.55;;;16.10;69.30;;;;;;5024313;28;20045;-83
2023/11/11 07:50:21;;;;;;;2.38;1.00;;;16.10;70.00;;;;;;5058637;28;20041;-82
2023/11/11 07:52:47;;;;;;;0.80;0.70;;;16.20;68.90;;;;;;5056159;28;20051;-84
2023/11/11 07:55:13;;;;;;;1.20;1.10;;;16.20;68.90;;;;;;5021181;28;20045;-84
2023/11/11 07:57:38;;;;;;;0.98;0.88;;;16.20;68.70;;;;;;5055277;28;20040;-83
2023/11/11 08:00:06;;;;;;;0.88;0.85;;;16.20;68.80;;;;;;5068297;28;20047;-83
2023/11/11 08:02:32;;;;;;;0.90;0.80;;;16.30;68.90;;;;;;5023703;28;20532;-82
2023/11/11 08:04:57;;;;;;;0.85;0.82;;;16.40;68.40;;;;;;5057827;28;20055;-82
2023/11/11 08:07:23;;;;;;;2.38;0.88;;;16.50;68.40;;;;;;5037375;28;20568;-83
2023/11/11 08:09:50;;;;;;;1.52;0.70;;;16.60;67.80;;;;;;5057759;28;20086;-83
2023/11/11 08:12:16;;;;;;;1.63;0.88;;;16.70;67.70;;;;;;5056660;28;20048;-83
2023/11/11 08:14:42;;;;;;;1.15;0.73;;;16.60;67.70;;;;;;5052567;28;20522;-81
2023/11/11 08:17:08;;;;;;;0.65;0.65;;;16.70;67.50;;;;;;5016737;28;20045;-82
2023/11/11 08:19:33;;;;;;;0.95;0.95;;;16.60;67.50;;;;;;5043775;28;20139;-82
2023/11/11 08:21:59;;;;;;;0.70;0.70;;;16.70;67.40;;;;;;5059481;28;20076;-82
2023/11/11 08:24:24;;;;;;;0.88;0.73;;;16.80;67.10;;;;;;5040616;28;20496;-82
2023/11/11 08:26:50;;;;;;;0.95;0.80;;;16.90;66.70;;;;;;5053110;28;20032;-82
2023/11/11 08:29:16;;;;;;;0.80;0.80;;;16.90;66.80;;;;;;5023482;28;20029;-82
2023/11/11 08:31:42;;;;;;;1.02;0.80;;;16.90;67.00;;;;;;5050911;28;20029;-82
2023/11/11 08:34:08;;;;;;;0.70;0.70;;;16.90;66.80;;;;;;5039451;28;20098;-82
2023/11/11 08:36:35;;;;;;;4.57;0.70;;;16.90;66.70;;;;;;5049870;28;20552;-82
2023/11/11 08:39:00;;;;;;;1.95;0.85;;;17.00;66.50;;;;;;5055593;28;20128;-81
2023/11/11 08:41:26;;;;;;;1.38;0.70;;;17.00;66.50;;;;;;5055490;28;20136;-82
2023/11/11 08:43:52;;;;;;;0.80;0.70;;;17.00;66.40;;;;;;5056323;28;20033;-80
2023/11/11 08:46:17;;;;;;;0.60;0.50;;;17.00;66.60;;;;;;5031494;28;20618;-81
2023/11/11 08:48:43;;;;;;;0.70;0.70;;;17.00;66.60;;;;;;5054491;28;20045;-81
2023/11/11 08:51:11;;;;;;;0.70;0.70;;;17.00;66.40;;;;;;5027290;28;20072;-80
2023/11/11 08:53:37;;;;;;;1.35;0.65;;;17.10;66.20;;;;;;5046519;28;20148;-81
2023/11/11 08:56:03;;;;;;;0.80;0.80;;;17.10;66.10;;;;;;5061345;28;20474;-80
2023/11/11 08:58:29;;;;;;;2.33;0.63;;;17.10;66.10;;;;;;5046450;28;20970;-81
2023/11/11 09:00:56;;;;;;;0.93;0.93;;;17.10;67.00;;;;;;5048247;28;20503;-81
2023/11/11 09:03:21;;;;;;;0.75;0.50;;;17.10;66.30;;;;;;5060899;28;20162;-81
2023/11/11 09:05:47;;;;;;;0.80;0.60;;;17.10;66.50;;;;;;5030464;28;20056;-81
2023/11/11 09:08:12;;;;;;;1.15;0.75;;;17.10;67.10;;;;;;5045282;28;20558;-80
2023/11/11 09:10:39;;;;;;;0.80;0.80;;;17.10;66.50;;;;;;5044520;28;20410;-81
2023/11/11 09:13:05;;;;;;;0.88;0.70;;;17.10;66.30;;;;;;5047220;28;20077;-81
2023/11/11 09:15:32;;;;;;;1.55;0.60;;;17.10;66.30;;;;;;5059695;28;20130;-80
2023/11/11 09:17:57;;;;;;;0.68;0.57;;;17.20;66.00;;;;;;5044785;28;20187;-81
2023/11/11 09:20:23;;;;;;;1.73;1.00;;;17.20;66.00;;;;;;5046177;28;20087;-81
2023/11/11 09:22:49;;;;;;;1.83;0.80;;;17.30;65.90;;;;;;5044760;28;20052;-81
2023/11/11 09:25:15;;;;;;;0.70;0.68;;;17.20;65.90;;;;;;5047409;28;20408;-81
2023/11/11 09:27:41;;;;;;;1.02;0.65;;;17.20;66.80;;;;;;5046522;28;20052;-81
2023/11/11 09:30:08;;;;;;;0.80;0.65;;;17.20;65.90;;;;;;5045172;28;20094;-81
2023/11/11 09:32:34;;;;;;;1.73;0.75;;;17.30;65.80;;;;;;5042558;28;20128;-81
2023/11/11 09:35:00;;;;;;;0.50;0.50;;;17.30;65.80;;;;;;5044741;28;20188;-81
2023/11/11 09:37:26;;;;;;;0.75;0.70;;;17.30;65.60;;;;;;5045860;28;20047;-81
2023/11/11 09:39:51;;;;;;;0.63;0.50;;;17.30;65.60;;;;;;5054900;28;20033;-81
2023/11/11 09:42:17;;;;;;;0.95;0.85;;;17.20;66.00;;;;;;4706306;28;10000783;-80
2023/11/11 09:44:43;;;;;;;0.77;0.63;;;17.20;66.30;;;;;;5022661;28;20858;-79
2023/11/11 09:47:12;;;;;;;1.08;0.70;;;17.20;66.20;;;;;;5038299;28;20052;-80
2023/11/11 09:49:38;;;;;;;0.80;0.60;;;17.20;66.00;;;;;;5041689;28;20040;-81
2023/11/11 09:52:04;;;;;;;0.95;0.65;;;17.30;66.00;;;;;;5042939;28;20045;-79
2023/11/11 09:54:30;;;;;;;1.00;0.75;;;17.30;66.00;;;;;;5039287;28;20518;-79
2023/11/11 09:56:56;;;;;;;0.60;0.60;;;17.30;66.10;;;;;;5038744;28;20124;-79
2023/11/11 09:59:22;;;;;;;1.38;0.80;;;17.40;65.80;;;;;;5040809;28;20162;-79
2023/11/11 10:01:48;;;;;;;1.48;0.73;;;17.40;66.00;;;;;;5036382;28;20152;-80
2023/11/11 10:04:14;;;;;;;0.88;0.88;;;17.30;66.00;;;;;;5023307;28;20413;-80
2023/11/11 10:06:40;;;;;;;1.35;0.80;;;17.30;66.10;;;;;;5040712;28;20507;-80
2023/11/11 10:09:08;;;;;;;0.70;0.70;;;17.30;66.20;;;;;;5024735;28;20040;-79
2023/11/11 10:11:37;;;;;;;0.88;0.70;;;17.40;66.00;;;;;;5037138;28;20052;-79
2023/11/11 10:14:03;;;;;;;1.02;0.95;;;17.40;66.10;;;;;;5048624;28;20045;-79
2023/11/11 10:16:29;;;;;;;0.73;0.73;;;17.30;66.30;;;;;;5039759;28;20045;-79
2023/11/11 10:18:58;;;;;;;0.80;0.60;;;17.40;66.40;;;;;;5039270;28;20425;-80
2023/11/11 10:21:24;;;;;;;1.13;0.80;;;17.40;66.40;;;;;;5026450;28;20468;-80
2023/11/11 10:23:51;;;;;;;4.60;0.60;;;17.40;66.50;;;;;;5039828;28;20040;-81
2023/11/11 10:26:16;;;;;;;1.67;0.65;;;17.40;66.50;;;;;;5038192;28;20049;-80
2023/11/11 10:28:56;;;;;;;0.63;0.63;;;17.40;66.70;;;;;;5039536;28;20102;-81
2023/11/11 10:31:23;;;;;;;1.25;0.90;;;17.40;66.80;;;;;;5008577;28;20044;-80
2023/11/11 10:33:48;;;;;;;0.73;0.45;;;17.30;66.70;;;;;;5039139;28;20080;-81
2023/11/11 10:36:14;;;;;;;0.88;0.70;;;17.30;66.70;;;;;;5039598;28;20045;-80
2023/11/11 10:38:41;;;;;;;0.70;0.70;;;17.30;66.40;;;;;;5040358;28;20037;-80
2023/11/11 10:41:07;;;;;;;1.95;0.90;;;17.40;66.50;;;;;;5038259;28;20523;-80
2023/11/11 10:43:33;;;;;;;0.47;0.47;;;17.30;66.60;;;;;;5039628;28;20077;-79
2023/11/11 10:46:00;;;;;;;1.05;0.82;;;17.30;66.60;;;;;;5040661;28;20368;-80
2023/11/11 10:48:25;;;;;;;1.08;0.98;;;17.30;66.70;;;;;;5006198;28;20040;-80
2023/11/11 10:50:51;;;;;;;1.00;0.55;;;17.40;66.40;;;;;;5020099;28;20037;-80
2023/11/11 10:53:17;;;;;;;0.70;0.70;;;17.40;66.20;;;;;;5054813;28;20041;-80
2023/11/11 10:55:46;;;;;;;0.60;0.60;;;17.40;66.70;;;;;;5069104;28;20059;-80
2023/11/11 10:58:13;;;;;;;0.77;0.70;;;17.40;67.40;;;;;;5047439;28;20049;-80
2023/11/11 11:00:40;;;;;;;1.95;0.80;;;17.30;66.70;;;;;;5025214;28;20044;-79
2023/11/11 11:03:06;;;;;;;1.10;1.00;;;17.30;66.60;;;;;;5040365;28;20029;-81
2023/11/11 11:05:46;;;;;;;0.68;0.68;;;17.30;66.90;;;;;;5039869;28;20047;-80
2023/11/11 11:08:38;;;;;;;0.80;0.75;;;17.30;66.90;;;;;;5037807;28;20102;-79
2023/11/11 11:11:07;;;;;;;0.77;0.68;;;17.30;66.70;;;;;;5040386;28;20053;-79
2023/11/11 11:13:33;;;;;;;1.45;0.70;;;17.30;66.70;;;;;;5036659;28;20072;-79
2023/11/11 11:16:01;;;;;;;0.60;0.60;;;17.30;66.70;;;;;;5040114;28;20119;-80
2023/11/11 11:18:27;;;;;;;0.63;0.63;;;17.30;67.00;;;;;;5037760;28;20114;-80
2023/11/11 11:20:55;;;;;;;0.68;0.60;;;17.30;66.80;;;;;;5039971;28;20466;-80
2023/11/11 11:23:22;;;;;;;0.70;0.50;;;17.20;66.90;;;;;;5037891;28;20041;-80
2023/11/11 11:25:50;;;;;;;0.70;0.70;;;17.20;67.10;;;;;;5039233;28;20120;-81
2023/11/11 11:28:22;;;;;;;0.52;0.52;;;17.20;66.80;;;;;;5024208;28;20037;-80
2023/11/11 11:30:58;;;;;;;0.82;0.82;;;17.20;66.90;;;;;;5022285;28;20033;-81
2023/11/11 11:33:25;;;;;;;0.60;0.60;;;17.20;67.00;;;;;;5038426;28;20098;-81
2023/11/11 11:35:53;;;;;;;0.45;0.45;;;17.20;67.30;;;;;;5036491;28;20043;-79
2023/11/11 11:38:39;;;;;;;0.70;0.57;;;17.20;67.10;;;;;;5023753;28;20048;-81
2023/11/11 11:41:20;;;;;;;0.65;0.50;;;17.30;66.90;;;;;;5038811;28;20488;-80
2023/11/11 11:43:52;;;;;;;1.23;0.60;;;17.20;67.10;;;;;;5019848;28;20072;-82
2023/11/11 11:46:23;;;;;;;0.60;0.60;;;17.20;67.10;;;;;;5039747;28;20037;-80
2023/11/11 11:48:50;;;;;;;0.80;0.60;;;17.20;67.30;;;;;;5022905;28;20110;-81
2023/11/11 11:51:20;;;;;;;0.70;0.60;;;17.20;68.20;;;;;;5035219;28;20029;-80
2023/11/11 11:53:48;;;;;;;0.70;0.63;;;17.20;67.40;;;;;;5024523;28;20325;-80
2023/11/11 11:56:29;;;;;;;0.90;0.57;;;17.20;67.60;;;;;;5036138;28;20047;-81
2023/11/11 11:58:59;;;;;;;1.17;0.80;;;17.20;67.50;;;;;;5036944;28;20414;-81
2023/11/11 12:01:25;;;;;;;0.60;0.60;;;17.10;67.50;;;;;;5037182;28;20426;-80
2023/11/11 12:03:51;;;;;;;2.25;0.70;;;17.10;67.60;;;;;;5036831;28;20049;-81
2023/11/11 12:06:22;;;;;;;1.45;0.80;;;17.10;67.60;;;;;;5037302;28;20456;-81
2023/11/11 12:08:58;;;;;;;0.68;0.68;;;17.10;67.60;;;;;;5021628;28;20045;-81
2023/11/11 12:11:28;;;;;;;0.73;0.68;;;17.10;67.50;;;;;;5050169;28;20060;-82
2023/11/11 12:13:54;;;;;;;0.80;0.60;;;17.10;67.70;;;;;;5036612;28;20046;-82
2023/11/11 12:16:21;;;;;;;1.27;0.43;;;17.10;67.60;;;;;;5039268;28;20065;-83
2023/11/11 12:18:47;;;;;;;0.73;0.65;;;17.10;67.60;;;;;;5038484;28;20132;-83
2023/11/11 12:21:17;;;;;;;1.08;0.55;;;17.00;67.70;;;;;;5038725;28;20123;-82
2023/11/11 12:23:43;;;;;;;1.88;1.05;;;17.00;67.70;;;;;;5043937;28;20032;-82
2023/11/11 12:26:09;;;;;;;0.77;0.77;;;17.00;67.70;;;;;;5040046;28;20032;-82
2023/11/11 12:28:35;;;;;;;0.70;0.47;;;17.00;67.80;;;;;;5043739;28;20046;-83
2023/11/11 12:31:04;;;;;;;1.13;0.55;;;17.00;67.80;;;;;;5021269;28;20068;-83
2023/11/11 12:33:30;;;;;;;0.43;0.43;;;17.00;67.70;;;;;;5040135;28;20033;-82
2023/11/11 12:35:56;;;;;;;1.80;0.60;;;17.00;67.60;;;;;;5039917;28;20415;-83
2023/11/11 12:38:27;;;;;;;0.63;0.50;;;17.10;67.60;;;;;;5015830;28;20090;-85
2023/11/11 12:40:54;;;;;;;0.50;0.50;;;17.00;67.50;;;;;;5055124;28;20086;-83
2023/11/11 12:43:24;;;;;;;0.70;0.45;;;17.00;67.60;;;;;;5041999;28;20045;-83